Time;durP1;ratioP1;P1;durP2;ratioP2;P2;SDS_P1;SDS_P2;PMS_P1;PMS_P2;Temp;Humidity;BMP_temperature;BMP_pressure;BME280_temperature;BME280_humidity;BME280_pressure;Samples;Min_cycle;Max_cycle;Signal;HPM_P1;HPM_P2
2021/01/02 00:02:39;;;;;;;0.30;0.30;;;;;;;1.68;88.28;100028.72;5103214;28;20081;-62
2021/01/02 00:05:09;;;;;;;1.35;1.35;;;;;;;1.68;88.28;100031.28;5104673;28;20028;-63
2021/01/02 00:07:57;;;;;;;3.42;1.23;;;;;;;1.68;88.41;100031.28;5104530;28;20020;-62
2021/01/02 00:10:27;;;;;;;0.40;0.40;;;;;;;1.65;88.36;100025.22;5104451;28;20024;-62
2021/01/02 00:13:20;;;;;;;0.30;0.30;;;;;;;1.64;88.49;100023.50;5104298;28;20035;-61
2021/01/02 00:15:57;;;;;;;0.30;0.30;;;;;;;1.62;88.45;100026.03;5104233;28;20016;-61
2021/01/02 00:18:55;;;;;;;0.40;0.40;;;;;;;1.71;88.46;100025.41;5104369;28;20605;-62
2021/01/02 00:21:27;;;;;;;0.40;0.40;;;;;;;1.72;88.25;100028.00;5102846;28;20092;-62
2021/01/02 00:24:04;;;;;;;0.40;0.40;;;;;;;1.67;88.32;100023.56;5103579;28;20032;-62
2021/01/02 00:26:40;;;;;;;0.40;0.40;;;;;;;1.65;88.34;100028.66;5119593;28;20038;-61
2021/01/02 00:29:10;;;;;;;0.40;0.40;;;;;;;1.66;88.40;100024.41;5103970;28;20588;-62
2021/01/02 00:32:08;;;;;;;0.40;0.40;;;;;;;1.66;88.41;100030.38;5103669;28;20024;-62
2021/01/02 00:34:52;;;;;;;0.40;0.40;;;;;;;1.66;88.38;100032.09;5102622;28;20016;-61
2021/01/02 00:37:35;;;;;;;0.40;0.40;;;;;;;1.67;88.37;100027.00;5103817;28;20074;-63
2021/01/02 00:40:15;;;;;;;0.40;0.40;;;;;;;1.68;88.36;100031.28;5103924;28;20028;-63
2021/01/02 00:42:46;;;;;;;0.30;0.30;;;;;;;1.68;88.31;100030.41;5103810;28;20085;-59
2021/01/02 00:45:14;;;;;;;0.40;0.40;;;;;;;1.69;88.38;100029.59;5103670;28;20525;-62
2021/01/02 00:47:41;;;;;;;0.38;0.38;;;;;;;1.66;88.46;100029.53;5103926;28;20081;-62
2021/01/02 00:50:09;;;;;;;0.35;0.35;;;;;;;1.66;88.35;100032.09;5103708;28;20012;-62
2021/01/02 00:52:47;;;;;;;0.30;0.30;;;;;;;1.66;88.42;100032.94;5103930;28;20389;-62
2021/01/02 00:55:24;;;;;;;0.50;0.50;;;;;;;1.62;88.44;100026.03;5119555;28;20020;-62
2021/01/02 00:57:49;;;;;;;0.40;0.40;;;;;;;1.63;88.42;100042.25;5103622;28;20027;-61
2021/01/02 01:00:28;;;;;;;0.40;0.40;;;;;;;1.57;88.39;100030.19;5103411;28;20054;-62
2021/01/02 01:03:02;;;;;;;0.40;0.40;;;;;;;1.60;88.43;100045.59;5119040;28;20045;-62
2021/01/02 01:05:37;;;;;;;0.40;0.40;;;;;;;1.59;88.40;100043.88;5103530;28;20075;-62
2021/01/02 01:08:04;;;;;;;0.40;0.40;;;;;;;1.56;88.42;100048.94;5103504;28;20024;-62
2021/01/02 01:10:35;;;;;;;9.05;4.55;;;;;;;1.56;88.42;100051.50;5103390;28;20099;-62
2021/01/02 01:13:05;;;;;;;0.40;0.40;;;;;;;1.52;88.43;100052.25;5103404;28;20027;-62
2021/01/02 01:15:31;;;;;;;0.40;0.40;;;;;;;1.55;88.62;100052.34;5103434;28;20077;-62
2021/01/02 01:18:19;;;;;;;0.30;0.30;;;;;;;1.59;88.57;100056.69;5103541;28;20024;-63
2021/01/02 01:20:45;;;;;;;0.40;0.40;;;;;;;1.54;88.58;100055.69;5103268;28;20047;-62
2021/01/02 01:23:35;;;;;;;0.50;0.50;;;;;;;1.57;88.63;100063.44;5103371;28;20031;-62
2021/01/02 01:26:31;;;;;;;0.77;0.77;;;;;;;1.60;88.46;100063.50;5103088;28;20488;-61
2021/01/02 01:28:59;;;;;;;0.40;0.40;;;;;;;1.60;88.57;100059.28;5103148;28;20088;-61
2021/01/02 01:31:30;;;;;;;1.88;1.77;;;;;;;1.63;88.52;100058.47;5102861;28;20080;-62
2021/01/02 01:34:00;;;;;;;0.40;0.40;;;;;;;1.59;88.50;100061.78;5103011;28;20028;-62
2021/01/02 01:36:33;;;;;;;0.45;0.45;;;;;;;1.57;88.29;100053.22;5103947;28;20082;-61
2021/01/02 01:38:58;;;;;;;0.40;0.40;;;;;;;1.55;88.37;100060.00;5107184;28;20061;-62
2021/01/02 01:41:37;;;;;;;0.40;0.40;;;;;;;1.54;88.41;100055.69;5122945;28;20051;-62
2021/01/02 01:44:05;;;;;;;0.40;0.40;;;;;;;1.54;88.64;100060.81;5107133;28;20020;-62
2021/01/02 01:46:35;;;;;;;0.40;0.40;;;;;;;1.54;88.61;100060.81;5106880;28;20114;-62
2021/01/02 01:49:11;;;;;;;0.40;0.40;;;;;;;1.44;88.58;100045.25;5106801;28;20066;-62
2021/01/02 01:51:55;;;;;;;0.35;0.35;;;;;;;1.51;88.63;100064.19;5106964;28;20016;-61
2021/01/02 01:54:39;;;;;;;0.30;0.30;;;;;;;1.51;88.80;100070.97;5122536;28;20035;-62
2021/01/02 01:57:05;;;;;;;0.40;0.40;;;;;;;1.53;88.85;100072.78;5106730;28;20132;-62
2021/01/02 02:00:09;;;;;;;0.30;0.30;;;;;;;1.58;88.89;100072.88;5106120;28;20061;-61
2021/01/02 02:02:46;;;;;;;0.40;0.40;;;;;;;1.64;88.69;100073.00;5103367;28;20032;-62
2021/01/02 02:05:22;;;;;;;0.70;0.70;;;;;;;1.66;88.71;100073.03;5106830;28;20054;-61
2021/01/02 02:08:01;;;;;;;0.40;0.40;;;;;;;1.65;88.65;100082.41;5106493;28;20078;-62
2021/01/02 02:10:31;;;;;;;0.30;0.30;;;;;;;1.68;88.76;100077.34;5106929;28;20095;-62
2021/01/02 02:12:59;;;;;;;0.40;0.40;;;;;;;1.69;88.71;100073.13;5106404;28;20028;-62
2021/01/02 02:15:27;;;;;;;0.40;0.40;;;;;;;1.74;88.69;100074.09;5106476;28;20020;-62
2021/01/02 02:18:03;;;;;;;0.32;0.32;;;;;;;1.77;88.77;100079.28;5105434;28;20517;-62
2021/01/02 02:20:30;;;;;;;0.40;0.40;;;;;;;1.81;88.67;100080.19;5106495;28;20039;-61
2021/01/02 02:23:14;;;;;;;0.40;0.40;;;;;;;1.81;88.50;100080.19;5106337;28;20027;-61
2021/01/02 02:26:04;;;;;;;0.40;0.40;;;;;;;1.79;88.65;100089.53;5106586;28;20031;-62
2021/01/02 02:28:33;;;;;;;0.40;0.40;;;;;;;1.79;88.47;100087.00;5106454;28;20044;-62
2021/01/02 02:31:04;;;;;;;0.40;0.40;;;;;;;1.78;88.48;100086.13;5106115;28;20023;-62
2021/01/02 02:33:30;;;;;;;;;;;;;;;1.80;88.64;100086.16;5106973;28;20031;-61
2021/01/02 02:35:56;;;;;;;0.40;0.40;;;;;;;1.75;88.41;100083.47;5105030;28;19919;-62
2021/01/02 02:38:22;;;;;;;0.40;0.40;;;;;;;1.69;88.31;100086.75;5106057;28;20043;-61
2021/01/02 02:40:47;;;;;;;0.50;0.50;;;;;;;1.64;88.37;100088.38;5106242;28;20103;-64
2021/01/02 02:43:15;;;;;;;2.90;2.15;;;;;;;1.60;88.39;100087.41;5105968;28;20028;-61
2021/01/02 02:45:40;;;;;;;0.50;0.50;;;;;;;1.64;88.18;100090.91;5105865;28;20031;-62
2021/01/02 02:48:13;;;;;;;0.40;0.40;;;;;;;1.64;88.24;100090.91;5106180;28;20032;-61
2021/01/02 02:50:41;;;;;;;0.40;0.40;;;;;;;1.58;88.23;100095.91;5105765;28;20016;-62
2021/01/02 02:53:12;;;;;;;0.30;0.30;;;;;;;1.51;88.21;100099.13;5105921;28;20146;-61
2021/01/02 02:55:38;;;;;;;0.40;0.40;;;;;;;1.48;88.46;100099.94;5105853;28;20059;-62
2021/01/02 02:58:05;;;;;;;0.40;0.40;;;;;;;1.44;88.52;100098.09;5105697;28;20030;-61
2021/01/02 03:00:30;;;;;;;0.63;0.63;;;;;;;1.44;88.57;100101.53;5105555;28;20031;-62
2021/01/02 03:02:56;;;;;;;5.07;4.22;;;;;;;1.42;88.56;100098.06;5104342;28;20047;-60
2021/01/02 03:05:22;;;;;;;0.40;0.40;;;;;;;1.39;88.71;100105.69;5105668;28;20085;-61
2021/01/02 03:07:49;;;;;;;0.30;0.30;;;;;;;1.42;88.60;100110.88;5105599;28;20114;-62
2021/01/02 03:10:18;;;;;;;0.40;0.40;;;;;;;1.45;88.69;100113.50;5105557;28;20031;-62
2021/01/02 03:12:46;;;;;;;0.40;0.40;;;;;;;1.47;88.81;100111.00;5120927;28;20493;-62
2021/01/02 03:15:13;;;;;;;0.40;0.40;;;;;;;1.48;88.72;100113.59;5105349;28;20035;-61
2021/01/02 03:17:40;;;;;;;0.70;0.70;;;;;;;1.52;88.63;100108.56;5105702;28;20020;-62
2021/01/02 03:20:06;;;;;;;0.40;0.40;;;;;;;1.54;88.75;100109.44;5105388;28;20028;-61
2021/01/02 03:22:31;;;;;;;0.40;0.40;;;;;;;1.48;88.75;100107.59;5105418;28;20024;-63
2021/01/02 03:24:57;;;;;;;0.30;0.30;;;;;;;1.56;88.79;100110.34;5105488;28;20484;-62
2021/01/02 03:27:22;;;;;;;0.40;0.40;;;;;;;1.59;88.69;100112.97;5105349;28;20032;-62
2021/01/02 03:29:48;;;;;;;0.30;0.30;;;;;;;1.60;88.70;100122.38;5105130;28;20031;-61
2021/01/02 03:32:13;;;;;;;0.40;0.40;;;;;;;1.62;88.66;100120.72;5105216;28;20491;-61
2021/01/02 03:34:40;;;;;;;0.40;0.40;;;;;;;1.59;88.53;100120.66;5105064;28;20089;-62
2021/01/02 03:37:06;;;;;;;0.40;0.40;;;;;;;1.57;88.59;100124.84;5104941;28;20039;-62
2021/01/02 03:39:33;;;;;;;0.40;0.40;;;;;;;1.57;88.64;100124.84;5105010;28;20020;-61
2021/01/02 03:41:58;;;;;;;0.40;0.40;;;;;;;1.57;88.63;100119.75;5104841;28;20042;-62
2021/01/02 03:44:23;;;;;;;0.40;0.40;;;;;;;1.58;88.66;100126.59;5104794;28;20464;-62
2021/01/02 03:46:49;;;;;;;0.30;0.30;;;;;;;1.58;88.55;100129.16;5104833;28;20046;-61
2021/01/02 03:49:14;;;;;;;0.40;0.40;;;;;;;1.57;88.65;100122.31;5105063;28;20418;-61
2021/01/02 03:51:39;;;;;;;0.40;0.40;;;;;;;1.48;88.61;100123.84;5104770;28;20463;-62
2021/01/02 03:54:05;;;;;;;0.30;0.30;;;;;;;1.52;88.56;100126.47;5105102;28;20047;-62
2021/01/02 03:56:30;;;;;;;0.40;0.40;;;;;;;1.52;88.74;100134.97;5104997;28;20468;-62
2021/01/02 03:58:55;;;;;;;0.40;0.40;;;;;;;1.58;88.65;100131.72;5103741;28;20035;-61
2021/01/02 04:01:21;;;;;;;0.30;0.30;;;;;;;1.60;88.68;100132.59;5104575;28;20066;-62
2021/01/02 04:03:46;;;;;;;0.40;0.40;;;;;;;1.59;88.73;100131.75;5104750;28;20024;-62
2021/01/02 04:06:11;;;;;;;0.40;0.40;;;;;;;1.60;88.55;100124.94;5104508;28;20016;-61
2021/01/02 04:08:37;;;;;;;0.40;0.40;;;;;;;1.55;88.57;100122.25;5104611;28;20044;-61
2021/01/02 04:11:02;;;;;;;0.40;0.40;;;;;;;1.59;88.62;100126.66;5104291;28;20020;-61
2021/01/02 04:13:27;;;;;;;0.40;0.40;;;;;;;1.61;88.59;100131.81;5119844;28;20024;-62
2021/01/02 04:15:53;;;;;;;0.40;0.40;;;;;;;1.61;88.66;100131.81;5104143;28;20042;-61
2021/01/02 04:18:19;;;;;;;0.50;0.50;;;;;;;1.62;88.54;100141.19;5103045;28;20027;-61
2021/01/02 04:20:47;;;;;;;0.40;0.40;;;;;;;1.63;88.62;100134.41;5104119;28;20034;-62
2021/01/02 04:23:13;;;;;;;0.40;0.40;;;;;;;1.64;88.43;100137.00;5104137;28;20050;-62
2021/01/02 04:25:39;;;;;;;0.40;0.40;;;;;;;1.61;88.46;100142.03;5104040;28;20028;-61
2021/01/02 04:28:10;;;;;;;0.40;0.40;;;;;;;1.58;88.50;100135.13;5103995;28;20031;-61
2021/01/02 04:30:36;;;;;;;0.40;0.40;;;;;;;1.51;88.39;100145.19;5103637;28;20020;-61
2021/01/02 04:33:01;;;;;;;0.40;0.40;;;;;;;1.50;88.45;100143.47;5103894;28;20043;-61
2021/01/02 04:35:27;;;;;;;0.40;0.40;;;;;;;1.43;88.48;100147.56;5103630;28;20024;-61
2021/01/02 04:37:52;;;;;;;0.30;0.30;;;;;;;1.41;88.58;100146.63;5103435;28;20178;-62
2021/01/02 04:40:17;;;;;;;0.40;0.40;;;;;;;1.43;88.65;100157.78;5103680;28;20020;-61
2021/01/02 04:42:43;;;;;;;0.40;0.40;;;;;;;1.41;88.53;100150.06;5103641;28;20557;-62
2021/01/02 04:45:11;;;;;;;0.40;0.40;;;;;;;1.36;88.58;100151.66;5103524;28;20020;-62
2021/01/02 04:47:37;;;;;;;3.25;3.05;;;;;;;1.32;88.50;100145.59;5103626;28;20020;-62
2021/01/02 04:50:06;;;;;;;0.40;0.40;;;;;;;1.32;88.65;100144.72;5103441;28;20066;-62
2021/01/02 04:52:31;;;;;;;0.40;0.40;;;;;;;1.30;88.60;100151.50;5103782;28;20027;-61
2021/01/02 04:54:58;;;;;;;0.40;0.40;;;;;;;1.29;88.68;100152.31;5103732;28;20020;-61
2021/01/02 04:57:24;;;;;;;0.40;0.40;;;;;;;1.29;88.65;100150.66;5103576;28;20022;-62
2021/01/02 04:59:51;;;;;;;0.40;0.40;;;;;;;1.28;88.71;100153.16;5103306;28;20024;-61
2021/01/02 05:02:20;;;;;;;0.40;0.40;;;;;;;1.27;88.72;100151.41;5103564;28;20519;-61
2021/01/02 05:04:49;;;;;;;0.40;0.40;;;;;;;1.25;88.58;100153.09;5103518;28;20032;-61
2021/01/02 05:07:29;;;;;;;0.40;0.40;;;;;;;1.21;88.64;100164.91;5103511;28;20039;-62
2021/01/02 05:09:56;;;;;;;0.40;0.40;;;;;;;1.18;88.67;100165.69;5103351;28;20494;-62
2021/01/02 05:12:29;;;;;;;0.40;0.40;;;;;;;1.07;88.56;100162.84;5118412;28;20240;-62
2021/01/02 05:14:59;;;;;;;0.40;0.40;;;;;;;1.10;88.55;100174.88;5103366;28;20020;-61
2021/01/02 05:17:26;;;;;;;0.40;0.40;;;;;;;1.06;88.18;100173.91;5103505;28;20020;-62
2021/01/02 05:20:19;;;;;;;0.50;0.50;;;;;;;1.06;88.66;100175.59;5103390;28;20020;-61
2021/01/02 05:22:44;;;;;;;0.40;0.40;;;;;;;1.03;88.67;100178.06;5102992;28;20364;-62
2021/01/02 05:25:15;;;;;;;0.52;0.52;;;;;;;1.03;88.58;100183.19;5103421;28;20658;-62
2021/01/02 05:27:51;;;;;;;0.40;0.40;;;;;;;1.04;88.55;100185.78;5103090;28;20555;-61
2021/01/02 05:30:25;;;;;;;0.65;0.65;;;;;;;1.02;88.60;100182.34;5103177;28;20024;-62
2021/01/02 05:33:13;;;;;;;0.40;0.40;;;;;;;1.03;88.58;100184.06;5103489;28;20044;-62
2021/01/02 05:35:44;;;;;;;0.40;0.40;;;;;;;1.05;88.36;100187.53;5103436;28;20020;-63
2021/01/02 05:38:20;;;;;;;0.40;0.40;;;;;;;1.02;88.32;100184.03;5101908;28;20055;-62
2021/01/02 05:40:54;;;;;;;0.40;0.40;;;;;;;0.96;88.10;100193.25;5103264;28;20076;-61
2021/01/02 05:43:22;;;;;;;0.40;0.40;;;;;;;0.92;88.09;100191.44;5103180;28;20020;-62
2021/01/02 05:45:49;;;;;;;0.35;0.35;;;;;;;0.89;88.30;100191.34;5102807;28;20028;-62
2021/01/02 05:48:28;;;;;;;0.40;0.40;;;;;;;0.87;88.30;100187.88;5103148;28;20091;-62
2021/01/02 05:50:55;;;;;;;0.30;0.30;;;;;;;0.85;88.11;100189.53;5102980;28;20016;-61
2021/01/02 05:53:26;;;;;;;0.40;0.40;;;;;;;0.80;88.11;100196.22;5103189;28;20030;-61
2021/01/02 05:56:10;;;;;;;1.53;1.43;;;;;;;0.74;88.28;100202.00;5103321;28;20035;-60
2021/01/02 05:58:38;;;;;;;0.40;0.40;;;;;;;0.70;88.40;100195.94;5102910;28;20024;-62
2021/01/02 06:01:11;;;;;;;0.40;0.40;;;;;;;0.68;88.45;100200.16;5101137;28;20048;-62
2021/01/02 06:03:38;;;;;;;0.40;0.40;;;;;;;0.69;88.50;100199.31;5103127;28;20086;-62
2021/01/02 06:06:10;;;;;;;0.50;0.50;;;;;;;0.68;88.43;100199.28;5102854;28;20059;-61
2021/01/02 06:08:44;;;;;;;0.40;0.40;;;;;;;0.68;88.53;100200.16;5102963;28;20028;-61
2021/01/02 06:11:15;;;;;;;0.40;0.40;;;;;;;0.65;88.53;100192.41;5103051;28;20043;-61
2021/01/02 06:13:46;;;;;;;0.40;0.40;;;;;;;0.64;88.57;100202.56;5102814;28;20464;-61
2021/01/02 06:16:12;;;;;;;0.95;0.95;;;;;;;0.64;88.46;100205.97;5102665;28;20028;-61
2021/01/02 06:18:42;;;;;;;0.40;0.40;;;;;;;0.64;88.60;100211.09;5102996;28;20387;-61
2021/01/02 06:21:09;;;;;;;0.40;0.40;;;;;;;0.60;88.62;100216.94;5102778;28;20024;-61
2021/01/02 06:23:36;;;;;;;0.40;0.40;;;;;;;0.64;88.56;100220.47;5105719;28;20020;-61
2021/01/02 06:26:05;;;;;;;0.40;0.40;;;;;;;0.65;88.57;100217.06;5105322;28;20068;-61
2021/01/02 06:28:34;;;;;;;0.40;0.40;;;;;;;0.65;88.64;100224.75;5106436;28;20088;-61
2021/01/02 06:31:11;;;;;;;0.40;0.40;;;;;;;0.63;88.65;100226.38;5106321;28;20020;-61
2021/01/02 06:33:44;;;;;;;0.40;0.40;;;;;;;0.61;88.53;100227.22;5106589;28;20079;-61
2021/01/02 06:36:33;;;;;;;0.40;0.40;;;;;;;0.61;88.55;100236.56;5106550;28;20503;-61
2021/01/02 06:39:17;;;;;;;0.30;0.30;;;;;;;0.61;88.61;100239.09;5106216;28;20112;-62
2021/01/02 06:41:43;;;;;;;0.40;0.40;;;;;;;0.58;88.53;100239.00;5106282;28;20490;-61
2021/01/02 06:44:08;;;;;;;0.40;0.40;;;;;;;0.60;88.64;100242.50;5106096;28;20027;-62
2021/01/02 06:46:35;;;;;;;0.32;0.32;;;;;;;0.63;88.70;100249.38;5106014;28;20019;-61
2021/01/02 06:49:00;;;;;;;0.40;0.40;;;;;;;0.60;88.82;100257.81;5106272;28;20047;-62
2021/01/02 06:51:28;;;;;;;0.40;0.40;;;;;;;0.67;88.76;100259.72;5106022;28;20056;-62
2021/01/02 06:53:54;;;;;;;0.40;0.40;;;;;;;0.71;88.86;100253.91;5105809;28;20130;-62
2021/01/02 06:56:29;;;;;;;0.40;0.40;;;;;;;0.73;89.04;100253.94;5106106;28;20020;-61
2021/01/02 06:58:54;;;;;;;0.40;0.40;;;;;;;0.77;88.99;100265.13;5105646;28;20050;-62
2021/01/02 07:01:22;;;;;;;2.05;1.08;;;;;;;0.78;88.70;100269.41;5121251;28;20024;-62
2021/01/02 07:03:49;;;;;;;0.40;0.40;;;;;;;0.78;88.90;100271.97;5105604;28;20031;-62
2021/01/02 07:06:21;;;;;;;0.82;0.82;;;;;;;0.72;89.00;100273.50;5105730;28;20031;-62
2021/01/02 07:08:57;;;;;;;0.40;0.40;;;;;;;0.78;88.91;100277.97;5105642;28;20028;-61
2021/01/02 07:11:35;;;;;;;0.50;0.50;;;;;;;0.83;88.99;100278.94;5105476;28;20043;-61
2021/01/02 07:14:10;;;;;;;0.40;0.40;;;;;;;0.84;89.04;100285.81;5105356;28;20080;-62
2021/01/02 07:16:50;;;;;;;0.35;0.35;;;;;;;0.90;88.95;100295.34;5105442;28;20020;-61
2021/01/02 07:19:30;;;;;;;0.45;0.45;;;;;;;0.97;89.02;100294.72;5105317;28;20024;-61
2021/01/02 07:22:10;;;;;;;0.30;0.30;;;;;;;1.02;89.06;100293.97;5105379;28;20051;-62
2021/01/02 07:25:00;;;;;;;0.38;0.38;;;;;;;1.04;88.89;100302.56;5105364;28;20020;-61
2021/01/02 07:27:39;;;;;;;0.40;0.40;;;;;;;1.03;88.88;100300.78;5105306;28;20073;-60
2021/01/02 07:30:07;;;;;;;0.40;0.40;;;;;;;1.06;88.96;100308.56;5104956;28;20085;-60
2021/01/02 07:32:38;;;;;;;0.40;0.40;;;;;;;1.10;88.90;100313.78;5105319;28;20063;-61
2021/01/02 07:35:11;;;;;;;0.38;0.38;;;;;;;1.13;89.22;100312.16;5104304;28;20024;-60
2021/01/02 07:37:45;;;;;;;0.43;0.43;;;;;;;1.13;88.85;100325.81;5104930;28;20055;-59
2021/01/02 07:40:12;;;;;;;2.58;2.47;;;;;;;1.12;88.69;100321.50;5105211;28;20029;-62
2021/01/02 07:42:40;;;;;;;0.40;0.40;;;;;;;1.07;88.43;100321.38;5105286;28;20511;-62
2021/01/02 07:45:14;;;;;;;0.40;0.40;;;;;;;1.04;88.45;100335.78;5104849;28;20051;-62
2021/01/02 07:47:45;;;;;;;0.43;0.43;;;;;;;1.01;88.50;100330.59;5105065;28;20016;-62
2021/01/02 07:50:13;;;;;;;0.50;0.50;;;;;;;0.95;88.46;100327.03;5105134;28;20035;-62
2021/01/02 07:52:52;;;;;;;0.40;0.40;;;;;;;0.93;88.58;100326.09;5104950;28;20032;-63
2021/01/02 07:55:21;;;;;;;0.40;0.40;;;;;;;0.90;88.49;100330.25;5104639;28;20069;-62
2021/01/02 07:57:47;;;;;;;0.40;0.40;;;;;;;0.87;88.43;100336.13;5104647;28;20024;-62
2021/01/02 08:00:14;;;;;;;0.50;0.50;;;;;;;0.78;88.35;100330.75;5104595;28;20028;-61
2021/01/02 08:02:40;;;;;;;0.40;0.40;;;;;;;0.81;88.56;100339.38;5103426;28;20023;-62
2021/01/02 08:05:14;;;;;;;0.40;0.40;;;;;;;0.78;88.58;100335.88;5104704;28;20459;-62
2021/01/02 08:07:40;;;;;;;0.40;0.40;;;;;;;0.79;88.58;100350.38;5120488;28;20136;-62
2021/01/02 08:10:13;;;;;;;0.40;0.40;;;;;;;0.79;88.64;100352.91;5120467;28;20020;-62
2021/01/02 08:12:46;;;;;;;0.40;0.40;;;;;;;0.78;88.86;100361.41;5104754;28;20107;-62
2021/01/02 08:15:14;;;;;;;0.40;0.40;;;;;;;0.78;88.73;100361.41;5104305;28;20019;-62
2021/01/02 08:17:41;;;;;;;0.40;0.40;;;;;;;0.72;88.84;100362.97;5104676;28;20045;-63
2021/01/02 08:20:07;;;;;;;0.40;0.40;;;;;;;0.73;88.88;100369.81;5104293;28;20107;-61
2021/01/02 08:22:37;;;;;;;0.40;0.40;;;;;;;0.74;88.91;100371.56;5104578;28;20028;-61
2021/01/02 08:25:10;;;;;;;0.35;0.35;;;;;;;0.76;88.83;100373.28;5104420;28;20049;-61
2021/01/02 08:27:36;;;;;;;0.40;0.40;;;;;;;0.76;88.97;100378.38;5104382;28;20027;-63
2021/01/02 08:30:05;;;;;;;0.32;0.32;;;;;;;0.72;88.84;100374.84;5103764;28;20012;-62
2021/01/02 08:32:35;;;;;;;0.40;0.40;;;;;;;0.71;88.99;100383.34;5103924;28;20024;-62
2021/01/02 08:35:00;;;;;;;0.40;0.40;;;;;;;0.65;89.05;100371.25;5103919;28;20061;-62
2021/01/02 08:37:26;;;;;;;0.40;0.40;;;;;;;0.71;88.96;100381.69;5104293;28;20048;-62
2021/01/02 08:40:09;;;;;;;0.40;0.40;;;;;;;0.68;88.94;100379.03;5103982;28;20055;-62
2021/01/02 08:42:41;;;;;;;0.43;0.43;;;;;;;0.68;88.96;100378.16;5103902;28;20061;-63
2021/01/02 08:45:09;;;;;;;0.43;0.43;;;;;;;0.72;88.94;100391.06;5119464;28;20024;-62
2021/01/02 08:47:36;;;;;;;0.50;0.50;;;;;;;0.73;88.94;100397.94;5102957;28;20020;-63
2021/01/02 08:50:12;;;;;;;0.60;0.60;;;;;;;0.76;89.17;100394.59;5104098;28;20025;-63
2021/01/02 08:52:39;;;;;;;0.40;0.40;;;;;;;0.79;89.11;100409.16;5104173;28;20035;-63
2021/01/02 08:55:13;;;;;;;0.40;0.40;;;;;;;0.82;89.27;100404.13;5104592;28;20024;-63
2021/01/02 08:57:48;;;;;;;0.40;0.40;;;;;;;0.87;89.27;100412.81;5104200;28;20028;-63
2021/01/02 09:00:18;;;;;;;0.30;0.30;;;;;;;0.90;89.29;100415.47;5103765;28;20020;-62
2021/01/02 09:02:46;;;;;;;0.40;0.40;;;;;;;0.95;89.46;100419.06;5104391;28;20085;-62
2021/01/02 09:05:27;;;;;;;0.57;0.57;;;;;;;1.04;89.27;100421.00;5119475;28;20019;-62
2021/01/02 09:07:57;;;;;;;0.40;0.40;;;;;;;1.13;89.34;100428.13;5103988;28;20024;-62
2021/01/02 09:10:44;;;;;;;0.40;0.40;;;;;;;1.09;89.06;100433.94;5103846;28;20024;-61
2021/01/02 09:13:09;;;;;;;0.38;0.38;;;;;;;1.08;89.07;100438.19;5103397;28;20032;-62
2021/01/02 09:15:59;;;;;;;0.30;0.30;;;;;;;1.11;89.14;100445.09;5103483;28;20063;-61
2021/01/02 09:18:27;;;;;;;0.32;0.32;;;;;;;1.16;89.19;100451.22;5103871;28;20046;-61
2021/01/02 09:20:53;;;;;;;0.40;0.40;;;;;;;1.17;89.21;100452.94;5103426;28;20020;-61
2021/01/02 09:23:48;;;;;;;0.38;0.38;;;;;;;1.22;89.16;100453.09;5103648;28;20087;-63
2021/01/02 09:26:22;;;;;;;0.40;0.40;;;;;;;1.23;89.26;100455.69;5097997;28;20036;-62
2021/01/02 09:28:49;;;;;;;0.40;0.40;;;;;;;1.24;89.17;100459.13;5103550;28;20024;-63
2021/01/02 09:31:14;;;;;;;0.40;0.40;;;;;;;1.30;89.29;100463.56;5103909;28;20372;-63
2021/01/02 09:33:40;;;;;;;0.30;0.30;;;;;;;1.33;89.18;100458.53;5103895;28;20462;-62
2021/01/02 09:36:06;;;;;;;0.38;0.38;;;;;;;1.30;89.27;100445.63;5103685;28;20019;-62
2021/01/02 09:38:31;;;;;;;0.40;0.40;;;;;;;1.43;89.32;100455.44;5103313;28;20043;-62
2021/01/02 09:40:57;;;;;;;0.30;0.30;;;;;;;1.55;89.38;100461.75;5103238;28;20024;-62
2021/01/02 09:43:23;;;;;;;0.40;0.40;;;;;;;1.61;89.46;100454.25;5103331;28;20024;-62
2021/01/02 09:45:49;;;;;;;0.40;0.40;;;;;;;1.71;89.32;100466.47;5103364;28;20024;-63
2021/01/02 09:48:14;;;;;;;0.30;0.30;;;;;;;1.72;89.18;100473.34;5119156;28;20073;-62
2021/01/02 09:50:43;;;;;;;0.40;0.40;;;;;;;1.77;89.07;100475.16;5103567;28;20024;-63
2021/01/02 09:53:10;;;;;;;0.60;0.60;;;;;;;1.80;88.99;100480.38;5103391;28;20084;-63
2021/01/02 09:55:36;;;;;;;0.40;0.40;;;;;;;1.76;88.84;100476.00;5103324;28;20051;-62
2021/01/02 09:58:01;;;;;;;0.40;0.40;;;;;;;1.72;88.94;100480.16;5105425;28;20027;-62
2021/01/02 10:00:27;;;;;;;0.40;0.40;;;;;;;1.68;88.74;100485.97;5106938;28;20076;-63
2021/01/02 10:02:54;;;;;;;0.40;0.40;;;;;;;1.66;88.98;100488.50;5107399;28;20036;-63
2021/01/02 10:05:21;;;;;;;0.55;0.55;;;;;;;1.73;89.02;100493.00;5107208;28;20039;-62
2021/01/02 10:07:46;;;;;;;0.40;0.40;;;;;;;1.76;89.23;100491.34;5107234;28;20056;-63
2021/01/02 10:10:15;;;;;;;0.40;0.40;;;;;;;1.84;89.16;100494.97;5107260;28;20020;-63
2021/01/02 10:12:42;;;;;;;0.63;0.63;;;;;;;1.90;89.06;100492.59;5107029;28;20098;-63
2021/01/02 10:15:08;;;;;;;0.30;0.30;;;;;;;1.95;89.08;100503.84;5106874;28;20027;-61
2021/01/02 10:17:33;;;;;;;0.30;0.30;;;;;;;2.04;89.12;100495.56;5122685;28;20024;-63
2021/01/02 10:19:59;;;;;;;0.30;0.30;;;;;;;2.05;89.06;100504.97;5106995;28;20027;-62
2021/01/02 10:22:26;;;;;;;0.35;0.35;;;;;;;2.02;88.84;100504.00;5106980;28;20085;-62
2021/01/02 10:24:52;;;;;;;0.40;0.40;;;;;;;2.06;88.84;100504.16;5106740;28;20020;-64
2021/01/02 10:27:18;;;;;;;0.40;0.40;;;;;;;2.11;88.88;100511.94;5106885;28;20020;-63
2021/01/02 10:29:45;;;;;;;0.40;0.40;;;;;;;2.12;88.88;100508.59;5106455;28;20028;-62
2021/01/02 10:32:12;;;;;;;0.40;0.40;;;;;;;2.12;88.73;100507.72;5106574;28;20024;-64
2021/01/02 10:34:37;;;;;;;0.40;0.40;;;;;;;2.11;88.87;100506.81;5106809;28;20023;-64
2021/01/02 10:37:04;;;;;;;0.30;0.30;;;;;;;2.20;89.07;100513.91;5122178;28;20047;-63
2021/01/02 10:39:29;;;;;;;0.40;0.40;;;;;;;2.27;89.12;100510.69;5106690;28;20051;-64
2021/01/02 10:41:55;;;;;;;0.40;0.40;;;;;;;2.29;88.94;100510.72;5106435;28;20046;-63
2021/01/02 10:44:20;;;;;;;0.30;0.30;;;;;;;2.31;88.95;100506.53;5106646;28;20020;-62
2021/01/02 10:46:52;;;;;;;0.40;0.40;;;;;;;2.32;88.88;100505.69;5106372;28;20024;-63
2021/01/02 10:49:21;;;;;;;0.40;0.40;;;;;;;2.40;89.01;100513.56;5106431;28;20024;-64
2021/01/02 10:51:47;;;;;;;1.00;1.00;;;;;;;2.42;89.12;100512.81;5106547;28;20016;-64
2021/01/02 10:54:15;;;;;;;0.40;0.40;;;;;;;2.42;88.89;100517.94;5106184;28;20028;-63
2021/01/02 10:56:51;;;;;;;0.40;0.40;;;;;;;2.41;88.70;100511.06;5104995;28;20047;-62
2021/01/02 10:59:21;;;;;;;0.40;0.40;;;;;;;2.33;88.72;100512.56;5106042;28;20083;-63
2021/01/02 11:01:52;;;;;;;0.40;0.40;;;;;;;2.31;88.48;100514.22;5105897;28;20084;-63
2021/01/02 11:04:19;;;;;;;0.40;0.40;;;;;;;2.23;88.59;100520.00;5106171;28;20020;-63
2021/01/02 11:06:48;;;;;;;0.30;0.30;;;;;;;2.22;88.73;100525.94;5106176;28;20101;-63
2021/01/02 11:09:14;;;;;;;0.52;0.52;;;;;;;2.19;88.72;100525.00;5105940;28;20035;-63
2021/01/02 11:11:41;;;;;;;0.40;0.40;;;;;;;2.14;88.83;100521.44;5106399;28;20048;-63
2021/01/02 11:14:07;;;;;;;0.40;0.40;;;;;;;2.19;89.17;100528.41;5105903;28;20107;-62
2021/01/02 11:16:36;;;;;;;0.40;0.40;;;;;;;2.19;88.71;100527.56;5105542;28;20036;-63
2021/01/02 11:19:03;;;;;;;0.40;0.40;;;;;;;2.20;88.79;100522.47;5105823;28;20502;-63
2021/01/02 11:21:28;;;;;;;0.38;0.38;;;;;;;2.26;88.89;100520.91;5105800;28;20079;-63
2021/01/02 11:23:53;;;;;;;0.40;0.40;;;;;;;2.28;88.84;100522.69;5105670;28;20102;-63
2021/01/02 11:26:19;;;;;;;0.40;0.40;;;;;;;2.22;88.83;100514.84;5105586;28;20537;-63
2021/01/02 11:28:45;;;;;;;0.40;0.40;;;;;;;2.26;88.76;100521.78;5105489;28;20048;-63
2021/01/02 11:31:11;;;;;;;0.40;0.40;;;;;;;2.25;88.81;100519.16;5121243;28;20016;-63
2021/01/02 11:33:37;;;;;;;0.32;0.32;;;;;;;2.18;88.71;100519.00;5105538;28;20031;-63
2021/01/02 11:36:03;;;;;;;1.00;1.00;;;;;;;2.14;88.81;100516.31;5121035;28;20022;-62
2021/01/02 11:38:29;;;;;;;0.32;0.32;;;;;;;2.17;88.90;100517.25;5105149;28;20127;-63
2021/01/02 11:40:54;;;;;;;0.60;0.60;;;;;;;2.18;88.93;100515.56;5104960;28;20108;-63
2021/01/02 11:43:19;;;;;;;0.30;0.30;;;;;;;2.17;88.90;100522.38;5105132;28;20053;-63
2021/01/02 11:45:46;;;;;;;0.60;0.60;;;;;;;2.20;88.76;100519.91;5104807;28;20028;-64
2021/01/02 11:48:15;;;;;;;0.35;0.35;;;;;;;2.22;88.79;100525.94;5105444;28;20358;-64
2021/01/02 11:50:41;;;;;;;0.40;0.40;;;;;;;2.18;88.76;100525.81;5104890;28;20024;-64